sensor_id;sensor_type;location;lat;lon;timestamp;temperature;humidity
40257;DHT22;25977;45.462;9.210;2023-09-19T00:01:13;22.90;98.60
40257;DHT22;25977;45.462;9.210;2023-09-19T00:03:40;22.90;98.60
40257;DHT22;25977;45.462;9.210;2023-09-19T00:06:07;22.90;98.50
40257;DHT22;25977;45.462;9.210;2023-09-19T00:08:36;22.90;98.50
40257;DHT22;25977;45.462;9.210;2023-09-19T00:11:02;22.90;98.60
40257;DHT22;25977;45.462;9.210;2023-09-19T00:13:34;22.90;98.60
40257;DHT22;25977;45.462;9.210;2023-09-19T00:16:08;22.90;98.60
40257;DHT22;25977;45.462;9.210;2023-09-19T00:18:36;22.90;98.50
40257;DHT22;25977;45.462;9.210;2023-09-19T00:21:02;22.90;98.50
40257;DHT22;25977;45.462;9.210;2023-09-19T00:23:30;22.90;98.40
40257;DHT22;25977;45.462;9.210;2023-09-19T00:26:00;22.90;98.40
40257;DHT22;25977;45.462;9.210;2023-09-19T00:28:26;22.80;98.60
40257;DHT22;25977;45.462;9.210;2023-09-19T00:30:52;22.70;98.80
40257;DHT22;25977;45.462;9.210;2023-09-19T00:33:20;22.60;99.00
40257;DHT22;25977;45.462;9.210;2023-09-19T00:35:50;22.70;98.90
40257;DHT22;25977;45.462;9.210;2023-09-19T00:38:16;22.80;98.90
40257;DHT22;25977;45.462;9.210;2023-09-19T00:40:45;22.80;98.90
40257;DHT22;25977;45.462;9.210;2023-09-19T00:43:11;22.80;98.80
40257;DHT22;25977;45.462;9.210;2023-09-19T00:45:37;22.80;98.80
40257;DHT22;25977;45.462;9.210;2023-09-19T00:48:08;22.80;98.80
40257;DHT22;25977;45.462;9.210;2023-09-19T00:50:35;22.80;98.80
40257;DHT22;25977;45.462;9.210;2023-09-19T00:53:01;22.80;98.80
40257;DHT22;25977;45.462;9.210;2023-09-19T00:55:33;22.80;98.80
40257;DHT22;25977;45.462;9.210;2023-09-19T00:58:00;22.80;98.80
40257;DHT22;25977;45.462;9.210;2023-09-19T01:00:26;22.80;98.90
40257;DHT22;25977;45.462;9.210;2023-09-19T01:02:52;22.80;98.90
40257;DHT22;25977;45.462;9.210;2023-09-19T01:05:19;22.70;98.90
40257;DHT22;25977;45.462;9.210;2023-09-19T01:07:45;22.70;99.00
40257;DHT22;25977;45.462;9.210;2023-09-19T01:10:17;22.80;99.00
40257;DHT22;25977;45.462;9.210;2023-09-19T01:29:39;22.80;99.10
40257;DHT22;25977;45.462;9.210;2023-09-19T01:32:06;22.80;99.10
40257;DHT22;25977;45.462;9.210;2023-09-19T01:34:55;22.80;99.10
40257;DHT22;25977;45.462;9.210;2023-09-19T01:37:30;22.80;99.20
40257;DHT22;25977;45.462;9.210;2023-09-19T01:39:59;22.80;99.20
40257;DHT22;25977;45.462;9.210;2023-09-19T01:42:42;22.80;99.20
40257;DHT22;25977;45.462;9.210;2023-09-19T01:48:35;22.80;99.20
40257;DHT22;25977;45.462;9.210;2023-09-19T01:51:07;22.80;99.10
40257;DHT22;25977;45.462;9.210;2023-09-19T01:54:08;22.80;99.10
40257;DHT22;25977;45.462;9.210;2023-09-19T01:56:59;22.70;99.00
40257;DHT22;25977;45.462;9.210;2023-09-19T01:59:35;22.70;99.20
40257;DHT22;25977;45.462;9.210;2023-09-19T02:02:04;22.70;99.10
40257;DHT22;25977;45.462;9.210;2023-09-19T02:04:34;22.70;99.00
40257;DHT22;25977;45.462;9.210;2023-09-19T02:07:03;22.60;98.70
40257;DHT22;25977;45.462;9.210;2023-09-19T02:09:31;22.70;98.70
40257;DHT22;25977;45.462;9.210;2023-09-19T02:12:01;22.70;98.60
40257;DHT22;25977;45.462;9.210;2023-09-19T02:14:29;22.50;98.70
40257;DHT22;25977;45.462;9.210;2023-09-19T02:16:56;22.60;98.80
40257;DHT22;25977;45.462;9.210;2023-09-19T02:19:22;22.60;98.70
40257;DHT22;25977;45.462;9.210;2023-09-19T02:21:49;22.60;98.60
40257;DHT22;25977;45.462;9.210;2023-09-19T02:24:15;22.60;98.60
40257;DHT22;25977;45.462;9.210;2023-09-19T02:26:41;22.60;98.60
40257;DHT22;25977;45.462;9.210;2023-09-19T02:29:06;22.60;98.60
40257;DHT22;25977;45.462;9.210;2023-09-19T02:31:32;22.60;98.60
40257;DHT22;25977;45.462;9.210;2023-09-19T02:33:58;22.60;98.60
40257;DHT22;25977;45.462;9.210;2023-09-19T02:36:28;22.60;98.60
40257;DHT22;25977;45.462;9.210;2023-09-19T02:38:56;22.60;98.60
40257;DHT22;25977;45.462;9.210;2023-09-19T02:41:22;22.60;98.60
40257;DHT22;25977;45.462;9.210;2023-09-19T02:43:47;22.60;98.60
40257;DHT22;25977;45.462;9.210;2023-09-19T02:46:13;22.50;98.50
40257;DHT22;25977;45.462;9.210;2023-09-19T02:48:39;22.60;98.60
40257;DHT22;25977;45.462;9.210;2023-09-19T02:51:05;22.50;98.60
40257;DHT22;25977;45.462;9.210;2023-09-19T02:53:31;22.50;98.60
40257;DHT22;25977;45.462;9.210;2023-09-19T02:55:57;22.50;98.60
40257;DHT22;25977;45.462;9.210;2023-09-19T02:58:24;22.50;98.60
40257;DHT22;25977;45.462;9.210;2023-09-19T03:00:50;22.50;98.60
40257;DHT22;25977;45.462;9.210;2023-09-19T03:03:17;22.50;98.60
40257;DHT22;25977;45.462;9.210;2023-09-19T03:05:43;22.60;98.60
40257;DHT22;25977;45.462;9.210;2023-09-19T03:08:14;22.50;98.60
40257;DHT22;25977;45.462;9.210;2023-09-19T03:10:41;22.50;98.70
40257;DHT22;25977;45.462;9.210;2023-09-19T03:13:07;22.50;98.70
40257;DHT22;25977;45.462;9.210;2023-09-19T03:15:36;22.50;98.80
40257;DHT22;25977;45.462;9.210;2023-09-19T03:18:04;22.30;98.80
40257;DHT22;25977;45.462;9.210;2023-09-19T03:20:30;22.40;98.90
40257;DHT22;25977;45.462;9.210;2023-09-19T03:22:56;22.30;98.90
40257;DHT22;25977;45.462;9.210;2023-09-19T03:25:23;22.40;98.90
40257;DHT22;25977;45.462;9.210;2023-09-19T03:27:50;22.30;98.90
40257;DHT22;25977;45.462;9.210;2023-09-19T03:30:16;22.30;98.90
40257;DHT22;25977;45.462;9.210;2023-09-19T03:32:46;22.30;98.80
40257;DHT22;25977;45.462;9.210;2023-09-19T03:35:13;22.30;98.90
40257;DHT22;25977;45.462;9.210;2023-09-19T03:37:41;22.40;99.00
40257;DHT22;25977;45.462;9.210;2023-09-19T03:40:09;22.40;99.00
40257;DHT22;25977;45.462;9.210;2023-09-19T03:42:42;22.40;98.90
40257;DHT22;25977;45.462;9.210;2023-09-19T03:45:11;22.40;98.80
40257;DHT22;25977;45.462;9.210;2023-09-19T03:47:39;22.40;98.90
40257;DHT22;25977;45.462;9.210;2023-09-19T03:50:07;22.40;98.90
40257;DHT22;25977;45.462;9.210;2023-09-19T03:52:34;22.40;98.90
40257;DHT22;25977;45.462;9.210;2023-09-19T03:55:00;22.40;98.90
40257;DHT22;25977;45.462;9.210;2023-09-19T03:57:28;22.40;98.90
40257;DHT22;25977;45.462;9.210;2023-09-19T03:59:54;22.40;98.90
40257;DHT22;25977;45.462;9.210;2023-09-19T04:02:20;22.40;98.90
40257;DHT22;25977;45.462;9.210;2023-09-19T04:04:51;22.40;98.90
40257;DHT22;25977;45.462;9.210;2023-09-19T04:07:17;22.40;98.90
40257;DHT22;25977;45.462;9.210;2023-09-19T04:09:45;22.40;98.90
40257;DHT22;25977;45.462;9.210;2023-09-19T04:12:11;22.40;98.90
40257;DHT22;25977;45.462;9.210;2023-09-19T04:14:37;22.40;98.90
40257;DHT22;25977;45.462;9.210;2023-09-19T04:17:04;22.40;98.90
40257;DHT22;25977;45.462;9.210;2023-09-19T04:19:31;22.30;98.90
40257;DHT22;25977;45.462;9.210;2023-09-19T04:21:57;22.40;98.90
40257;DHT22;25977;45.462;9.210;2023-09-19T04:24:22;22.30;98.80
40257;DHT22;25977;45.462;9.210;2023-09-19T04:26:48;22.30;98.80
40257;DHT22;25977;45.462;9.210;2023-09-19T04:29:14;22.30;98.70
40257;DHT22;25977;45.462;9.210;2023-09-19T04:31:40;22.30;98.70
40257;DHT22;25977;45.462;9.210;2023-09-19T04:34:08;22.30;98.70
40257;DHT22;25977;45.462;9.210;2023-09-19T04:36:35;22.30;98.70
40257;DHT22;25977;45.462;9.210;2023-09-19T04:39:02;22.30;98.70
40257;DHT22;25977;45.462;9.210;2023-09-19T04:41:30;22.30;98.70
40257;DHT22;25977;45.462;9.210;2023-09-19T04:43:56;22.30;98.70
40257;DHT22;25977;45.462;9.210;2023-09-19T04:46:22;22.30;98.70
40257;DHT22;25977;45.462;9.210;2023-09-19T04:48:47;22.30;98.70
40257;DHT22;25977;45.462;9.210;2023-09-19T04:51:13;22.30;98.70
40257;DHT22;25977;45.462;9.210;2023-09-19T04:53:40;22.30;98.80
40257;DHT22;25977;45.462;9.210;2023-09-19T04:56:06;22.20;98.80
40257;DHT22;25977;45.462;9.210;2023-09-19T04:58:33;22.20;98.70
40257;DHT22;25977;45.462;9.210;2023-09-19T05:00:59;22.20;98.70
40257;DHT22;25977;45.462;9.210;2023-09-19T05:03:25;22.20;98.70
40257;DHT22;25977;45.462;9.210;2023-09-19T05:05:50;22.20;98.70
40257;DHT22;25977;45.462;9.210;2023-09-19T05:08:16;22.20;98.70
40257;DHT22;25977;45.462;9.210;2023-09-19T05:10:42;22.20;98.60
40257;DHT22;25977;45.462;9.210;2023-09-19T05:13:07;22.20;98.60
40257;DHT22;25977;45.462;9.210;2023-09-19T05:15:33;22.20;98.60
40257;DHT22;25977;45.462;9.210;2023-09-19T05:17:59;22.20;98.50
40257;DHT22;25977;45.462;9.210;2023-09-19T05:20:25;22.20;98.50
40257;DHT22;25977;45.462;9.210;2023-09-19T05:23:03;22.10;98.40
40257;DHT22;25977;45.462;9.210;2023-09-19T05:25:31;22.20;98.50
40257;DHT22;25977;45.462;9.210;2023-09-19T05:27:58;22.10;98.40
40257;DHT22;25977;45.462;9.210;2023-09-19T05:30:27;22.10;98.40
40257;DHT22;25977;45.462;9.210;2023-09-19T05:32:53;22.10;98.40
40257;DHT22;25977;45.462;9.210;2023-09-19T05:35:20;22.10;98.40
40257;DHT22;25977;45.462;9.210;2023-09-19T05:37:47;22.20;98.40
40257;DHT22;25977;45.462;9.210;2023-09-19T05:40:17;22.20;98.40
40257;DHT22;25977;45.462;9.210;2023-09-19T05:42:43;22.20;98.30
40257;DHT22;25977;45.462;9.210;2023-09-19T05:45:10;22.20;98.20
40257;DHT22;25977;45.462;9.210;2023-09-19T05:47:41;22.20;98.20
40257;DHT22;25977;45.462;9.210;2023-09-19T05:50:09;22.30;98.10
40257;DHT22;25977;45.462;9.210;2023-09-19T05:52:38;22.30;98.10
40257;DHT22;25977;45.462;9.210;2023-09-19T05:55:05;22.30;98.00
40257;DHT22;25977;45.462;9.210;2023-09-19T05:57:32;22.30;97.90
40257;DHT22;25977;45.462;9.210;2023-09-19T05:59:58;22.30;97.80
40257;DHT22;25977;45.462;9.210;2023-09-19T06:02:23;22.40;97.80
40257;DHT22;25977;45.462;9.210;2023-09-19T06:04:52;22.40;97.70
40257;DHT22;25977;45.462;9.210;2023-09-19T06:07:18;22.50;97.60
40257;DHT22;25977;45.462;9.210;2023-09-19T06:09:44;22.50;97.50
40257;DHT22;25977;45.462;9.210;2023-09-19T06:12:09;22.60;97.50
40257;DHT22;25977;45.462;9.210;2023-09-19T06:14:39;22.60;97.40
40257;DHT22;25977;45.462;9.210;2023-09-19T06:17:05;22.60;97.30
40257;DHT22;25977;45.462;9.210;2023-09-19T06:19:31;22.70;97.20
40257;DHT22;25977;45.462;9.210;2023-09-19T06:21:58;22.70;97.10
40257;DHT22;25977;45.462;9.210;2023-09-19T06:24:25;22.70;97.10
40257;DHT22;25977;45.462;9.210;2023-09-19T06:26:51;22.70;97.10
40257;DHT22;25977;45.462;9.210;2023-09-19T06:29:18;22.70;97.10
40257;DHT22;25977;45.462;9.210;2023-09-19T06:31:46;22.70;97.10
40257;DHT22;25977;45.462;9.210;2023-09-19T06:34:12;22.80;97.00
40257;DHT22;25977;45.462;9.210;2023-09-19T06:36:41;23.10;97.10
40257;DHT22;25977;45.462;9.210;2023-09-19T06:39:07;24.00;96.30
40257;DHT22;25977;45.462;9.210;2023-09-19T06:41:37;25.20;94.80
40257;DHT22;25977;45.462;9.210;2023-09-19T06:44:10;26.40;93.20
40257;DHT22;25977;45.462;9.210;2023-09-19T06:46:35;27.40;91.80
40257;DHT22;25977;45.462;9.210;2023-09-19T06:49:04;28.20;90.60
40257;DHT22;25977;45.462;9.210;2023-09-19T06:51:32;28.70;88.80
40257;DHT22;25977;45.462;9.210;2023-09-19T06:54:00;28.50;88.60
40257;DHT22;25977;45.462;9.210;2023-09-19T06:56:26;28.30;89.10
40257;DHT22;25977;45.462;9.210;2023-09-19T06:58:52;28.20;89.10
40257;DHT22;25977;45.462;9.210;2023-09-19T07:01:18;28.30;88.90
40257;DHT22;25977;45.462;9.210;2023-09-19T07:03:44;28.60;88.60
40257;DHT22;25977;45.462;9.210;2023-09-19T07:06:11;29.00;87.70
40257;DHT22;25977;45.462;9.210;2023-09-19T07:08:37;29.60;86.20
40257;DHT22;25977;45.462;9.210;2023-09-19T07:11:04;30.10;85.00
40257;DHT22;25977;45.462;9.210;2023-09-19T07:13:31;30.70;83.60
40257;DHT22;25977;45.462;9.210;2023-09-19T07:15:58;31.10;82.60
40257;DHT22;25977;45.462;9.210;2023-09-19T07:18:25;31.50;81.70
40257;DHT22;25977;45.462;9.210;2023-09-19T07:20:51;31.50;80.90
40257;DHT22;25977;45.462;9.210;2023-09-19T07:23:18;31.00;81.30
40257;DHT22;25977;45.462;9.210;2023-09-19T07:25:44;30.20;82.30
40257;DHT22;25977;45.462;9.210;2023-09-19T07:28:10;29.40;83.60
40257;DHT22;25977;45.462;9.210;2023-09-19T07:30:36;28.70;84.90
40257;DHT22;25977;45.462;9.210;2023-09-19T07:33:07;28.20;86.20
40257;DHT22;25977;45.462;9.210;2023-09-19T07:35:33;27.70;87.20
40257;DHT22;25977;45.462;9.210;2023-09-19T07:37:59;27.40;88.10
40257;DHT22;25977;45.462;9.210;2023-09-19T07:40:27;27.10;88.80
40257;DHT22;25977;45.462;9.210;2023-09-19T07:42:57;26.90;89.30
40257;DHT22;25977;45.462;9.210;2023-09-19T07:45:30;26.80;90.00
40257;DHT22;25977;45.462;9.210;2023-09-19T07:47:56;26.70;90.10
40257;DHT22;25977;45.462;9.210;2023-09-19T07:50:22;26.90;90.10
40257;DHT22;25977;45.462;9.210;2023-09-19T07:52:49;27.00;89.90
40257;DHT22;25977;45.462;9.210;2023-09-19T07:55:19;27.00;89.60
40257;DHT22;25977;45.462;9.210;2023-09-19T07:57:48;27.00;89.90
40257;DHT22;25977;45.462;9.210;2023-09-19T08:00:18;27.00;89.80
40257;DHT22;25977;45.462;9.210;2023-09-19T08:02:44;27.00;89.80
40257;DHT22;25977;45.462;9.210;2023-09-19T08:05:11;26.90;90.00
40257;DHT22;25977;45.462;9.210;2023-09-19T08:07:41;26.90;90.10
40257;DHT22;25977;45.462;9.210;2023-09-19T08:10:08;26.90;90.00
40257;DHT22;25977;45.462;9.210;2023-09-19T08:12:45;26.90;90.10
40257;DHT22;25977;45.462;9.210;2023-09-19T08:15:18;26.90;90.10
40257;DHT22;25977;45.462;9.210;2023-09-19T08:17:47;26.90;90.10
40257;DHT22;25977;45.462;9.210;2023-09-19T08:20:13;26.90;90.00
40257;DHT22;25977;45.462;9.210;2023-09-19T08:22:53;26.90;90.10
40257;DHT22;25977;45.462;9.210;2023-09-19T08:25:22;26.90;90.00
40257;DHT22;25977;45.462;9.210;2023-09-19T08:27:49;27.00;90.10
40257;DHT22;25977;45.462;9.210;2023-09-19T08:30:16;27.00;90.10
40257;DHT22;25977;45.462;9.210;2023-09-19T08:32:41;27.10;90.00
40257;DHT22;25977;45.462;9.210;2023-09-19T08:35:11;27.10;89.80
40257;DHT22;25977;45.462;9.210;2023-09-19T08:37:37;27.10;89.50
40257;DHT22;25977;45.462;9.210;2023-09-19T08:40:03;26.80;89.40
40257;DHT22;25977;45.462;9.210;2023-09-19T08:42:31;26.60;89.60
40257;DHT22;25977;45.462;9.210;2023-09-19T08:44:58;26.60;90.00
40257;DHT22;25977;45.462;9.210;2023-09-19T08:47:34;26.60;90.00
40257;DHT22;25977;45.462;9.210;2023-09-19T08:50:39;26.70;90.00
40257;DHT22;25977;45.462;9.210;2023-09-19T08:53:11;26.90;89.60
40257;DHT22;25977;45.462;9.210;2023-09-19T08:55:43;26.80;89.40
40257;DHT22;25977;45.462;9.210;2023-09-19T08:58:10;26.90;89.50
40257;DHT22;25977;45.462;9.210;2023-09-19T09:00:38;27.00;88.90
40257;DHT22;25977;45.462;9.210;2023-09-19T09:03:09;26.90;88.90
40257;DHT22;25977;45.462;9.210;2023-09-19T09:05:36;27.00;89.50
40257;DHT22;25977;45.462;9.210;2023-09-19T09:08:02;27.10;89.10
40257;DHT22;25977;45.462;9.210;2023-09-19T09:10:31;27.20;88.60
40257;DHT22;25977;45.462;9.210;2023-09-19T09:12:58;27.20;88.40
40257;DHT22;25977;45.462;9.210;2023-09-19T09:15:24;27.40;88.60
40257;DHT22;25977;45.462;9.210;2023-09-19T09:17:51;27.50;88.40
40257;DHT22;25977;45.462;9.210;2023-09-19T09:20:19;27.60;87.80
40257;DHT22;25977;45.462;9.210;2023-09-19T09:22:52;27.50;87.90
40257;DHT22;25977;45.462;9.210;2023-09-19T09:25:47;27.60;88.00
40257;DHT22;25977;45.462;9.210;2023-09-19T09:28:25;27.60;87.90
40257;DHT22;25977;45.462;9.210;2023-09-19T09:30:52;27.70;87.80
40257;DHT22;25977;45.462;9.210;2023-09-19T09:33:18;27.80;87.30
40257;DHT22;25977;45.462;9.210;2023-09-19T09:35:48;27.80;87.20
40257;DHT22;25977;45.462;9.210;2023-09-19T09:38:21;27.80;87.50
40257;DHT22;25977;45.462;9.210;2023-09-19T09:40:48;27.80;87.40
40257;DHT22;25977;45.462;9.210;2023-09-19T09:46:19;27.90;87.40
40257;DHT22;25977;45.462;9.210;2023-09-19T09:49:02;27.90;86.90
40257;DHT22;25977;45.462;9.210;2023-09-19T09:51:43;27.90;87.00
40257;DHT22;25977;45.462;9.210;2023-09-19T09:54:18;27.90;87.30
40257;DHT22;25977;45.462;9.210;2023-09-19T10:02:35;28.00;86.70
40257;DHT22;25977;45.462;9.210;2023-09-19T10:05:15;28.00;86.60
40257;DHT22;25977;45.462;9.210;2023-09-19T10:07:53;28.00;86.40
40257;DHT22;25977;45.462;9.210;2023-09-19T10:10:33;28.00;86.30
40257;DHT22;25977;45.462;9.210;2023-09-19T10:13:10;28.00;86.50
40257;DHT22;25977;45.462;9.210;2023-09-19T10:15:44;28.00;86.30
40257;DHT22;25977;45.462;9.210;2023-09-19T10:18:22;28.00;86.30
40257;DHT22;25977;45.462;9.210;2023-09-19T10:20:48;28.00;86.10
40257;DHT22;25977;45.462;9.210;2023-09-19T10:23:17;28.10;86.00
40257;DHT22;25977;45.462;9.210;2023-09-19T10:25:49;28.00;85.80
40257;DHT22;25977;45.462;9.210;2023-09-19T10:28:16;28.00;85.80
40257;DHT22;25977;45.462;9.210;2023-09-19T10:30:48;28.10;85.70
40257;DHT22;25977;45.462;9.210;2023-09-19T10:33:17;28.10;85.30
40257;DHT22;25977;45.462;9.210;2023-09-19T10:35:44;28.10;85.30
40257;DHT22;25977;45.462;9.210;2023-09-19T10:38:11;28.10;85.70
40257;DHT22;25977;45.462;9.210;2023-09-19T10:40:38;28.10;85.40
40257;DHT22;25977;45.462;9.210;2023-09-19T10:43:18;28.10;85.10
40257;DHT22;25977;45.462;9.210;2023-09-19T10:45:45;28.10;85.00
40257;DHT22;25977;45.462;9.210;2023-09-19T10:48:18;28.10;85.00
40257;DHT22;25977;45.462;9.210;2023-09-19T10:50:53;28.00;85.60
40257;DHT22;25977;45.462;9.210;2023-09-19T10:53:26;28.00;85.60
40257;DHT22;25977;45.462;9.210;2023-09-19T10:55:56;27.90;85.70
40257;DHT22;25977;45.462;9.210;2023-09-19T10:58:29;27.90;85.50
40257;DHT22;25977;45.462;9.210;2023-09-19T11:01:00;27.80;85.60
40257;DHT22;25977;45.462;9.210;2023-09-19T11:03:31;27.80;86.10
40257;DHT22;25977;45.462;9.210;2023-09-19T11:06:06;27.80;86.10
40257;DHT22;25977;45.462;9.210;2023-09-19T11:08:54;27.80;86.20
40257;DHT22;25977;45.462;9.210;2023-09-19T11:11:39;27.90;86.40
40257;DHT22;25977;45.462;9.210;2023-09-19T11:30:41;27.90;86.40
40257;DHT22;25977;45.462;9.210;2023-09-19T11:33:28;27.90;86.00
40257;DHT22;25977;45.462;9.210;2023-09-19T11:36:04;27.90;85.90
40257;DHT22;25977;45.462;9.210;2023-09-19T11:46:20;28.00;85.90
40257;DHT22;25977;45.462;9.210;2023-09-19T11:48:50;28.00;85.70
40257;DHT22;25977;45.462;9.210;2023-09-19T11:51:21;28.00;85.80
40257;DHT22;25977;45.462;9.210;2023-09-19T11:53:54;28.10;85.50
40257;DHT22;25977;45.462;9.210;2023-09-19T11:56:22;28.10;85.30
40257;DHT22;25977;45.462;9.210;2023-09-19T11:58:50;28.00;85.10
40257;DHT22;25977;45.462;9.210;2023-09-19T12:01:32;28.10;84.80
40257;DHT22;25977;45.462;9.210;2023-09-19T12:04:01;28.00;84.70
40257;DHT22;25977;45.462;9.210;2023-09-19T12:06:30;27.90;84.90
40257;DHT22;25977;45.462;9.210;2023-09-19T12:08:58;27.90;84.90
40257;DHT22;25977;45.462;9.210;2023-09-19T12:11:31;27.80;85.50
40257;DHT22;25977;45.462;9.210;2023-09-19T12:14:01;27.90;85.70
40257;DHT22;25977;45.462;9.210;2023-09-19T12:16:28;28.00;85.70
40257;DHT22;25977;45.462;9.210;2023-09-19T12:18:57;28.00;85.30
40257;DHT22;25977;45.462;9.210;2023-09-19T12:21:30;28.00;84.70
40257;DHT22;25977;45.462;9.210;2023-09-19T12:24:07;28.10;84.40
40257;DHT22;25977;45.462;9.210;2023-09-19T12:26:45;28.10;84.60
40257;DHT22;25977;45.462;9.210;2023-09-19T12:29:18;28.00;84.90
40257;DHT22;25977;45.462;9.210;2023-09-19T12:31:55;28.10;84.60
40257;DHT22;25977;45.462;9.210;2023-09-19T12:34:24;28.00;83.90
40257;DHT22;25977;45.462;9.210;2023-09-19T12:37:10;28.10;84.40
40257;DHT22;25977;45.462;9.210;2023-09-19T12:39:42;28.10;84.30
40257;DHT22;25977;45.462;9.210;2023-09-19T12:42:10;28.10;83.90
40257;DHT22;25977;45.462;9.210;2023-09-19T12:44:48;27.90;84.30
40257;DHT22;25977;45.462;9.210;2023-09-19T12:47:17;28.00;84.70
40257;DHT22;25977;45.462;9.210;2023-09-19T12:52:48;28.20;84.00
40257;DHT22;25977;45.462;9.210;2023-09-19T12:55:30;28.30;84.30
40257;DHT22;25977;45.462;9.210;2023-09-19T12:58:14;28.40;84.20
40257;DHT22;25977;45.462;9.210;2023-09-19T13:00:45;28.40;84.30
40257;DHT22;25977;45.462;9.210;2023-09-19T13:03:17;28.50;83.80
40257;DHT22;25977;45.462;9.210;2023-09-19T13:05:55;28.50;83.50
40257;DHT22;25977;45.462;9.210;2023-09-19T13:08:31;28.60;83.50
40257;DHT22;25977;45.462;9.210;2023-09-19T13:16:04;28.60;82.90
40257;DHT22;25977;45.462;9.210;2023-09-19T13:18:42;28.70;82.70
40257;DHT22;25977;45.462;9.210;2023-09-19T13:21:10;28.70;82.70
40257;DHT22;25977;45.462;9.210;2023-09-19T13:23:42;28.70;82.60
40257;DHT22;25977;45.462;9.210;2023-09-19T13:26:09;28.70;81.90
40257;DHT22;25977;45.462;9.210;2023-09-19T13:28:37;28.70;81.40
40257;DHT22;25977;45.462;9.210;2023-09-19T13:31:02;28.70;81.90
40257;DHT22;25977;45.462;9.210;2023-09-19T13:33:28;28.70;81.90
40257;DHT22;25977;45.462;9.210;2023-09-19T13:35:54;28.80;81.70
40257;DHT22;25977;45.462;9.210;2023-09-19T13:38:20;28.80;81.50
40257;DHT22;25977;45.462;9.210;2023-09-19T13:40:47;28.80;81.00
40257;DHT22;25977;45.462;9.210;2023-09-19T13:43:13;28.70;81.10
40257;DHT22;25977;45.462;9.210;2023-09-19T13:45:40;28.60;80.80
40257;DHT22;25977;45.462;9.210;2023-09-19T13:48:08;28.60;80.90
40257;DHT22;25977;45.462;9.210;2023-09-19T13:50:37;28.70;80.70
40257;DHT22;25977;45.462;9.210;2023-09-19T13:53:08;28.60;80.90
40257;DHT22;25977;45.462;9.210;2023-09-19T13:55:34;28.60;81.00
40257;DHT22;25977;45.462;9.210;2023-09-19T13:58:00;28.60;81.00
40257;DHT22;25977;45.462;9.210;2023-09-19T14:00:26;28.60;81.20
40257;DHT22;25977;45.462;9.210;2023-09-19T14:02:52;28.50;80.90
40257;DHT22;25977;45.462;9.210;2023-09-19T14:05:19;28.50;80.80
40257;DHT22;25977;45.462;9.210;2023-09-19T14:07:46;28.50;80.30
40257;DHT22;25977;45.462;9.210;2023-09-19T14:10:12;28.40;80.20
40257;DHT22;25977;45.462;9.210;2023-09-19T14:12:38;28.40;80.50
40257;DHT22;25977;45.462;9.210;2023-09-19T14:15:08;28.30;80.10
40257;DHT22;25977;45.462;9.210;2023-09-19T14:17:34;28.30;79.70
40257;DHT22;25977;45.462;9.210;2023-09-19T14:20:00;28.30;80.00
40257;DHT22;25977;45.462;9.210;2023-09-19T14:22:26;28.20;79.80
40257;DHT22;25977;45.462;9.210;2023-09-19T14:24:51;28.20;80.20
40257;DHT22;25977;45.462;9.210;2023-09-19T14:27:18;28.10;80.40
40257;DHT22;25977;45.462;9.210;2023-09-19T14:29:44;28.10;80.20
40257;DHT22;25977;45.462;9.210;2023-09-19T14:32:10;28.00;80.50
40257;DHT22;25977;45.462;9.210;2023-09-19T14:34:36;27.70;80.50
40257;DHT22;25977;45.462;9.210;2023-09-19T14:37:07;27.60;80.90
40257;DHT22;25977;45.462;9.210;2023-09-19T14:39:33;27.70;80.70
40257;DHT22;25977;45.462;9.210;2023-09-19T14:41:59;27.70;80.80
40257;DHT22;25977;45.462;9.210;2023-09-19T14:44:24;27.70;80.30
40257;DHT22;25977;45.462;9.210;2023-09-19T14:46:50;27.80;80.50
40257;DHT22;25977;45.462;9.210;2023-09-19T14:49:16;27.70;80.70
40257;DHT22;25977;45.462;9.210;2023-09-19T14:51:42;27.70;81.10
40257;DHT22;25977;45.462;9.210;2023-09-19T14:54:14;27.70;81.20
40257;DHT22;25977;45.462;9.210;2023-09-19T14:56:42;27.80;80.90
40257;DHT22;25977;45.462;9.210;2023-09-19T14:59:08;27.70;80.90
40257;DHT22;25977;45.462;9.210;2023-09-19T15:01:36;27.70;80.50
40257;DHT22;25977;45.462;9.210;2023-09-19T15:04:03;27.70;80.60
40257;DHT22;25977;45.462;9.210;2023-09-19T15:06:29;27.70;80.50
40257;DHT22;25977;45.462;9.210;2023-09-19T15:08:55;27.70;80.70
40257;DHT22;25977;45.462;9.210;2023-09-19T15:11:22;27.60;80.20
40257;DHT22;25977;45.462;9.210;2023-09-19T15:13:51;27.60;80.50
40257;DHT22;25977;45.462;9.210;2023-09-19T15:16:17;27.50;80.00
40257;DHT22;25977;45.462;9.210;2023-09-19T15:18:44;27.50;80.70
40257;DHT22;25977;45.462;9.210;2023-09-19T15:21:13;27.60;80.20
40257;DHT22;25977;45.462;9.210;2023-09-19T15:23:41;27.60;79.80
40257;DHT22;25977;45.462;9.210;2023-09-19T15:26:08;27.60;79.90
40257;DHT22;25977;45.462;9.210;2023-09-19T15:28:34;27.60;79.30
40257;DHT22;25977;45.462;9.210;2023-09-19T15:31:04;27.60;80.00
40257;DHT22;25977;45.462;9.210;2023-09-19T15:33:30;27.60;80.40
40257;DHT22;25977;45.462;9.210;2023-09-19T15:38:32;27.50;80.70
40257;DHT22;25977;45.462;9.210;2023-09-19T15:41:21;27.50;81.20
40257;DHT22;25977;45.462;9.210;2023-09-19T15:43:47;27.40;81.10
40257;DHT22;25977;45.462;9.210;2023-09-19T15:46:13;27.40;81.00
40257;DHT22;25977;45.462;9.210;2023-09-19T15:48:42;27.50;80.80
40257;DHT22;25977;45.462;9.210;2023-09-19T15:51:08;27.50;80.00
40257;DHT22;25977;45.462;9.210;2023-09-19T15:53:53;27.50;80.80
40257;DHT22;25977;45.462;9.210;2023-09-19T15:56:20;27.50;81.10
40257;DHT22;25977;45.462;9.210;2023-09-19T15:58:50;27.50;80.70
40257;DHT22;25977;45.462;9.210;2023-09-19T16:01:17;27.50;80.70
40257;DHT22;25977;45.462;9.210;2023-09-19T16:03:53;27.40;81.00
40257;DHT22;25977;45.462;9.210;2023-09-19T16:06:22;27.40;81.20
40257;DHT22;25977;45.462;9.210;2023-09-19T16:08:53;27.30;81.00
40257;DHT22;25977;45.462;9.210;2023-09-19T16:11:19;27.30;81.60
40257;DHT22;25977;45.462;9.210;2023-09-19T16:13:47;27.30;80.90
40257;DHT22;25977;45.462;9.210;2023-09-19T16:16:13;27.20;80.90
40257;DHT22;25977;45.462;9.210;2023-09-19T16:18:55;27.30;81.50
40257;DHT22;25977;45.462;9.210;2023-09-19T16:21:27;27.30;82.20
40257;DHT22;25977;45.462;9.210;2023-09-19T16:23:54;27.30;81.90
40257;DHT22;25977;45.462;9.210;2023-09-19T16:26:21;27.30;82.00
40257;DHT22;25977;45.462;9.210;2023-09-19T16:28:58;27.30;83.60
40257;DHT22;25977;45.462;9.210;2023-09-19T16:31:28;27.40;83.20
40257;DHT22;25977;45.462;9.210;2023-09-19T16:33:54;27.30;82.50
40257;DHT22;25977;45.462;9.210;2023-09-19T16:36:20;27.30;81.80
40257;DHT22;25977;45.462;9.210;2023-09-19T16:38:47;27.30;81.60
40257;DHT22;25977;45.462;9.210;2023-09-19T16:41:17;27.30;81.60
40257;DHT22;25977;45.462;9.210;2023-09-19T16:43:44;27.20;81.10
40257;DHT22;25977;45.462;9.210;2023-09-19T16:46:11;27.10;81.10